createdAt,value
2023-05-02T00:00:01.026Z,101364.58
2023-05-02T00:01:01.522Z,101365.09
2023-05-02T00:01:11.259Z,101365.51
2023-05-02T00:02:11.832Z,101365.93
2023-05-02T00:03:12.501Z,101366.34
2023-05-02T00:04:12.801Z,101366.21
2023-05-02T00:05:13.710Z,101366.63
2023-05-02T00:06:15.660Z,101367.08
2023-05-02T00:07:15.322Z,101366.86
2023-05-02T00:08:16.269Z,101367.06
2023-05-02T00:09:16.888Z,101366.75
2023-05-02T00:10:17.513Z,101367.31
2023-05-02T00:11:18.321Z,101367.03
2023-05-02T00:12:19.024Z,101366.34
2023-05-02T00:13:19.954Z,101366.11
2023-05-02T00:13:31.054Z,101365.58
2023-05-02T00:14:31.418Z,101364.88
2023-05-02T00:15:33.304Z,101364.48
2023-05-02T00:16:32.474Z,101363.76
2023-05-02T00:17:33.114Z,101363.03
2023-05-02T00:18:33.839Z,101362.34
2023-05-02T00:19:34.481Z,101361.20
2023-05-02T00:20:35.115Z,101360.55
2023-05-02T00:21:35.762Z,101360.33
2023-05-02T00:22:36.323Z,101360.27
2023-05-02T00:23:36.990Z,101359.80
2023-05-02T00:23:49.542Z,101359.27
2023-05-02T00:24:50.233Z,101358.63
2023-05-02T00:25:51.991Z,101357.72
2023-05-02T00:26:51.002Z,101357.27
2023-05-02T00:27:51.578Z,101356.29
2023-05-02T00:28:53.353Z,101355.17
2023-05-02T00:29:52.978Z,101354.27
2023-05-02T00:30:54.508Z,101352.89
2023-05-02T00:31:54.205Z,101351.63
2023-05-02T00:32:54.780Z,101350.34
2023-05-02T00:33:55.466Z,101349.27
2023-05-02T00:34:55.747Z,101348.71
2023-05-02T00:35:10.685Z,101347.67
2023-05-02T00:36:11.274Z,101347.22
2023-05-02T00:37:12.176Z,101346.41
2023-05-02T00:38:13.612Z,101345.92
2023-05-02T00:39:13.452Z,101345.39
2023-05-02T00:40:14.172Z,101345.20
2023-05-02T00:41:14.762Z,101344.66
2023-05-02T00:42:16.490Z,101343.45
2023-05-02T00:43:15.617Z,101342.75
2023-05-02T00:44:15.721Z,101342.39
2023-05-02T00:45:15.703Z,101341.86
2023-05-02T00:45:28.252Z,101341.29
2023-05-02T00:46:28.021Z,101341.34
2023-05-02T00:47:28.468Z,101341.06
2023-05-02T00:48:29.043Z,101340.36
2023-05-02T00:49:29.666Z,101339.45
2023-05-02T00:50:29.835Z,101339.27
2023-05-02T00:51:30.451Z,101338.63
2023-05-02T00:52:31.274Z,101337.80
2023-05-02T00:53:32.127Z,101338.00
2023-05-02T00:54:32.223Z,101337.36
2023-05-02T00:55:32.866Z,101336.96
2023-05-02T00:55:44.671Z,101336.40
2023-05-02T00:56:44.507Z,101336.23
2023-05-02T00:57:45.114Z,101335.75
2023-05-02T00:58:45.796Z,101335.33
2023-05-02T00:59:46.390Z,101334.83
2023-05-02T01:00:47.140Z,101333.90
2023-05-02T01:01:47.366Z,101333.03
2023-05-02T01:02:47.973Z,101332.36
2023-05-02T01:03:48.169Z,101331.40
2023-05-02T01:04:48.866Z,101330.73
2023-05-02T01:05:49.590Z,101329.69
2023-05-02T01:06:50.417Z,101328.69
2023-05-02T01:07:50.821Z,101327.90
2023-05-02T01:08:00.941Z,101327.03
2023-05-02T01:09:01.561Z,101326.61
2023-05-02T01:10:03.569Z,101326.61
2023-05-02T01:11:03.224Z,101325.82
2023-05-02T01:12:03.941Z,101325.41
2023-05-02T01:13:04.536Z,101325.57
2023-05-02T01:14:05.438Z,101325.29
2023-05-02T01:15:05.512Z,101324.76
2023-05-02T01:16:06.302Z,101324.73
2023-05-02T01:17:06.933Z,101324.42
2023-05-02T01:18:07.734Z,101324.42
2023-05-02T01:18:16.429Z,101324.42
2023-05-02T01:19:16.413Z,101324.08
2023-05-02T01:20:17.266Z,101323.92
2023-05-02T01:21:17.593Z,101323.80
2023-05-02T01:22:17.850Z,101323.55
2023-05-02T01:23:18.522Z,101323.12
2023-05-02T01:24:18.614Z,101322.56
2023-05-02T01:25:20.414Z,101322.15
2023-05-02T01:26:20.086Z,101321.89
2023-05-02T01:27:20.653Z,101322.06
2023-05-02T01:28:21.228Z,101321.67
2023-05-02T01:29:22.861Z,101321.75
2023-05-02T01:30:22.342Z,101321.27
2023-05-02T01:30:34.141Z,101321.22
2023-05-02T01:31:34.318Z,101321.84
2023-05-02T01:32:34.673Z,101321.53
2023-05-02T01:33:35.403Z,101320.63
2023-05-02T01:34:35.791Z,101321.08
2023-05-02T01:35:36.750Z,101320.59
2023-05-02T01:36:36.855Z,101320.45
2023-05-02T01:37:37.763Z,101320.31
2023-05-02T01:38:38.747Z,101320.00
2023-05-02T01:39:39.483Z,101320.70
2023-05-02T01:40:39.600Z,101320.99
2023-05-02T01:41:40.377Z,101320.98
2023-05-02T01:41:50.616Z,101321.10
2023-05-02T01:42:51.268Z,101321.52
2023-05-02T01:43:51.984Z,101321.69
2023-05-02T01:44:52.724Z,101322.02
2023-05-02T01:45:53.374Z,101322.14
2023-05-02T01:46:53.686Z,101322.22
2023-05-02T01:47:54.314Z,101322.56
2023-05-02T01:48:55.009Z,101322.14
2023-05-02T01:49:55.657Z,101322.56
2023-05-02T01:50:56.573Z,101322.47
2023-05-02T01:51:57.341Z,101323.15
2023-05-02T01:52:57.816Z,101323.66
2023-05-02T01:53:58.572Z,101324.55
2023-05-02T01:54:07.265Z,101325.51
2023-05-02T01:55:07.977Z,101326.34
2023-05-02T01:56:08.703Z,101326.94
2023-05-02T01:57:09.470Z,101327.52
2023-05-02T01:58:10.251Z,101328.03
2023-05-02T01:59:10.907Z,101328.53
2023-05-02T02:00:11.675Z,101329.71
2023-05-02T02:01:11.761Z,101330.22
2023-05-02T02:02:12.429Z,101330.81
2023-05-02T02:03:14.066Z,101332.08
2023-05-02T02:04:13.818Z,101332.83
2023-05-02T02:04:23.049Z,101333.28
2023-05-02T02:05:23.717Z,101334.87
2023-05-02T02:06:24.433Z,101335.83
2023-05-02T02:07:25.308Z,101336.00
2023-05-02T02:08:25.373Z,101336.11
2023-05-02T02:09:25.991Z,101336.11
2023-05-02T02:10:26.684Z,101336.28
2023-05-02T02:11:27.388Z,101335.94
2023-05-02T02:12:28.025Z,101335.91
2023-05-02T02:13:28.962Z,101335.91
2023-05-02T02:14:29.904Z,101335.74
2023-05-02T02:15:30.479Z,101335.83
2023-05-02T02:15:41.233Z,101335.91
2023-05-02T02:16:41.408Z,101336.14
2023-05-02T02:17:42.096Z,101336.47
2023-05-02T02:18:42.755Z,101336.81
2023-05-02T02:19:43.385Z,101337.55
2023-05-02T02:20:44.288Z,101337.85
2023-05-02T02:21:45.022Z,101338.11
2023-05-02T02:22:45.577Z,101338.78
2023-05-02T02:23:46.134Z,101338.78
2023-05-02T02:24:46.940Z,101339.03
2023-05-02T02:25:48.459Z,101340.12
2023-05-02T02:25:59.953Z,101340.52
2023-05-02T02:26:59.697Z,101341.11
2023-05-02T02:27:59.563Z,101341.53
2023-05-02T02:29:00.414Z,101342.03
2023-05-02T02:30:01.257Z,101342.82
2023-05-02T02:31:01.613Z,101342.91
2023-05-02T02:32:02.392Z,101342.81
2023-05-02T02:33:04.133Z,101342.98
2023-05-02T02:34:03.640Z,101343.16
2023-05-02T02:35:03.706Z,101342.98
2023-05-02T02:36:04.299Z,101342.73
2023-05-02T02:37:05.292Z,101342.48
2023-05-02T02:37:13.960Z,101341.81
2023-05-02T02:38:14.720Z,101342.15
2023-05-02T02:39:15.357Z,101342.80
2023-05-02T02:40:16.237Z,101343.52
2023-05-02T02:41:16.970Z,101343.75
2023-05-02T02:42:17.674Z,101343.66
2023-05-02T02:43:18.091Z,101343.19
2023-05-02T02:44:18.650Z,101343.28
2023-05-02T02:45:20.336Z,101344.39
2023-05-02T02:46:20.119Z,101344.54
2023-05-02T02:47:20.958Z,101344.34
2023-05-02T02:48:21.828Z,101344.23
2023-05-02T02:49:22.520Z,101344.17
2023-05-02T02:49:31.704Z,101343.98
2023-05-02T02:50:32.520Z,101344.27
2023-05-02T02:51:33.203Z,101343.91
2023-05-02T02:52:33.288Z,101343.84
2023-05-02T02:53:35.029Z,101343.95
2023-05-02T02:54:34.678Z,101343.84
2023-05-02T02:55:35.385Z,101343.56
2023-05-02T02:56:35.975Z,101344.02
2023-05-02T02:57:36.905Z,101343.95
2023-05-02T02:58:37.340Z,101344.27
2023-05-02T02:59:37.451Z,101344.50
2023-05-02T02:59:56.023Z,101344.86
2023-05-02T03:00:56.723Z,101345.00
2023-05-02T03:01:57.436Z,101345.65
2023-05-02T03:02:58.124Z,101346.13
2023-05-02T03:03:58.802Z,101346.74
2023-05-02T03:04:59.296Z,101347.39
2023-05-02T03:05:59.973Z,101348.34
2023-05-02T03:07:00.254Z,101349.25
2023-05-02T03:08:01.134Z,101350.45
2023-05-02T03:09:01.734Z,101351.02
2023-05-02T03:10:02.680Z,101351.48
2023-05-02T03:11:03.102Z,101353.06
2023-05-02T03:11:12.880Z,101353.54
2023-05-02T03:12:12.607Z,101354.75
2023-05-02T03:13:13.031Z,101355.30
2023-05-02T03:14:14.696Z,101355.14
2023-05-02T03:15:14.476Z,101356.23
2023-05-02T03:16:14.830Z,101356.46
2023-05-02T03:17:15.568Z,101356.94
2023-05-02T03:18:16.368Z,101356.48
2023-05-02T03:19:16.896Z,101356.59
2023-05-02T03:20:17.605Z,101356.48
2023-05-02T03:21:18.213Z,101356.42
2023-05-02T03:22:19.084Z,101356.20
2023-05-02T03:22:32.252Z,101355.55
2023-05-02T03:23:34.129Z,101355.33
2023-05-02T03:24:33.740Z,101355.44
2023-05-02T03:25:34.503Z,101354.79
2023-05-02T03:26:35.059Z,101354.73
2023-05-02T03:27:35.664Z,101354.14
2023-05-02T03:28:37.426Z,101354.34
2023-05-02T03:29:37.214Z,101354.08
2023-05-02T03:30:38.822Z,101353.31
2023-05-02T03:31:38.458Z,101352.98
2023-05-02T03:32:39.381Z,101352.69
2023-05-02T03:32:51.679Z,101352.73
2023-05-02T03:33:52.125Z,101352.95
2023-05-02T03:34:52.753Z,101352.86
2023-05-02T03:35:53.549Z,101352.15
2023-05-02T03:36:53.633Z,101351.47
2023-05-02T03:37:54.295Z,101350.84
2023-05-02T03:38:55.078Z,101350.38
2023-05-02T03:39:55.690Z,101350.04
2023-05-02T03:40:56.407Z,101350.00
2023-05-02T03:41:56.996Z,101350.33
2023-05-02T03:42:57.062Z,101350.45
2023-05-02T03:43:57.885Z,101350.19
2023-05-02T03:44:06.502Z,101350.52
2023-05-02T03:45:07.182Z,101350.56
2023-05-02T03:46:07.898Z,101350.89
2023-05-02T03:47:08.494Z,101351.64
2023-05-02T03:48:09.241Z,101351.96
2023-05-02T03:49:10.084Z,101353.05
2023-05-02T03:50:11.672Z,101353.80
2023-05-02T03:51:11.349Z,101354.20
2023-05-02T03:52:11.986Z,101354.70
2023-05-02T03:53:12.624Z,101355.87
2023-05-02T03:54:13.383Z,101357.62
2023-05-02T03:54:26.080Z,101359.00
2023-05-02T03:55:26.111Z,101361.09
2023-05-02T03:56:26.200Z,101362.46
2023-05-02T03:57:26.920Z,101363.55
2023-05-02T03:58:28.585Z,101364.83
2023-05-02T03:59:28.324Z,101366.29
2023-05-02T04:00:28.958Z,101367.91
2023-05-02T04:01:30.149Z,101369.36
2023-05-02T04:02:29.560Z,101370.90
2023-05-02T04:03:30.257Z,101372.58
2023-05-02T04:04:30.855Z,101374.78
2023-05-02T04:05:31.506Z,101376.97
2023-05-02T04:05:40.157Z,101378.42
2023-05-02T04:06:40.938Z,101380.55
2023-05-02T04:07:41.498Z,101382.59
2023-05-02T04:08:41.807Z,101384.64
2023-05-02T04:09:42.746Z,101387.31
2023-05-02T04:10:43.060Z,101389.77
2023-05-02T04:11:43.651Z,101391.98
2023-05-02T04:12:44.271Z,101394.15
2023-05-02T04:13:44.829Z,101396.78
2023-05-02T04:14:45.652Z,101399.03
2023-05-02T04:15:46.210Z,101402.17
2023-05-02T04:16:47.238Z,101404.76
2023-05-02T04:16:56.401Z,101407.14
2023-05-02T04:17:56.878Z,101409.39
2023-05-02T04:18:57.264Z,101412.06
2023-05-02T04:19:58.284Z,101414.55
2023-05-02T04:20:58.680Z,101417.31
2023-05-02T04:21:59.385Z,101419.73
2023-05-02T04:22:59.953Z,101422.31
2023-05-02T04:24:00.034Z,101424.34
2023-05-02T04:25:00.620Z,101427.27
2023-05-02T04:26:01.170Z,101429.68
2023-05-02T04:27:01.601Z,101431.53
2023-05-02T04:28:01.731Z,101434.03
2023-05-02T04:28:12.848Z,101437.08
2023-05-02T04:29:12.462Z,101439.83
2023-05-02T04:30:13.201Z,101441.78
2023-05-02T04:31:13.614Z,101443.77
2023-05-02T04:32:14.159Z,101446.36
2023-05-02T04:33:14.996Z,101448.22
2023-05-02T04:34:15.543Z,101450.72
2023-05-02T04:35:16.160Z,101453.16
2023-05-02T04:36:17.029Z,101456.26
2023-05-02T04:37:17.571Z,101459.12
2023-05-02T04:38:18.200Z,101462.34
2023-05-02T04:39:18.871Z,101465.38
2023-05-02T04:40:19.611Z,101468.08
2023-05-02T04:40:31.278Z,101470.45
2023-05-02T04:41:32.186Z,101472.70
2023-05-02T04:42:32.723Z,101474.98
2023-05-02T04:43:34.303Z,101477.42
2023-05-02T04:44:33.993Z,101479.54
2023-05-02T04:45:34.645Z,101481.95
2023-05-02T04:46:35.165Z,101484.66
2023-05-02T04:47:35.960Z,101486.73
2023-05-02T04:48:36.491Z,101489.45
2023-05-02T04:49:37.159Z,101491.89
2023-05-02T04:50:37.741Z,101494.23
2023-05-02T04:51:38.773Z,101496.93
2023-05-02T04:51:48.393Z,101499.17
2023-05-02T04:52:48.948Z,101501.45
2023-05-02T04:53:49.423Z,101504.13
2023-05-02T04:54:49.935Z,101506.58
2023-05-02T04:55:50.499Z,101508.74
2023-05-02T04:56:51.114Z,101511.28
2023-05-02T04:57:51.740Z,101513.61
2023-05-02T04:58:52.406Z,101516.56
2023-05-02T04:59:53.183Z,101518.56
2023-05-02T05:00:53.740Z,101521.32
2023-05-02T05:01:54.267Z,101523.85
2023-05-02T05:02:54.950Z,101526.64
2023-05-02T05:03:55.706Z,101529.31
2023-05-02T05:04:04.850Z,101531.85
2023-05-02T05:05:05.309Z,101534.18
2023-05-02T05:06:05.908Z,101536.80
2023-05-02T05:07:06.538Z,101539.42
2023-05-02T05:08:07.168Z,101541.50
2023-05-02T05:09:07.809Z,101544.20
2023-05-02T05:10:08.585Z,101547.22
2023-05-02T05:11:09.252Z,101550.59
2023-05-02T05:12:09.786Z,101554.14
2023-05-02T05:13:10.512Z,101557.16
2023-05-02T05:14:11.203Z,101560.11
2023-05-02T05:15:12.022Z,101563.62
2023-05-02T05:15:21.723Z,101566.59
2023-05-02T05:16:22.332Z,101569.71
2023-05-02T05:17:22.988Z,101572.41
2023-05-02T05:18:23.592Z,101574.78
2023-05-02T05:19:24.190Z,101578.08
2023-05-02T05:20:25.113Z,101580.95
2023-05-02T05:21:25.659Z,101584.33
2023-05-02T05:22:26.579Z,101587.09
2023-05-02T05:23:28.300Z,101590.22
2023-05-02T05:24:27.924Z,101593.05
2023-05-02T05:25:28.445Z,101596.02
2023-05-02T05:26:29.094Z,101598.63
2023-05-02T05:26:38.139Z,101600.83
2023-05-02T05:27:37.852Z,101603.84
2023-05-02T05:28:38.030Z,101606.29
2023-05-02T05:29:38.342Z,101609.00
2023-05-02T05:30:39.044Z,101610.86
2023-05-02T05:31:39.642Z,101613.14
2023-05-02T05:32:40.088Z,101615.33
2023-05-02T05:33:40.824Z,101617.91
2023-05-02T05:34:40.750Z,101620.72
2023-05-02T05:35:41.285Z,101622.44
2023-05-02T05:36:41.830Z,101624.59
2023-05-02T05:37:42.676Z,101626.95
2023-05-02T05:37:54.786Z,101629.32
2023-05-02T05:38:55.673Z,101631.40
2023-05-02T05:39:56.169Z,101633.42
2023-05-02T05:40:56.999Z,101634.95
2023-05-02T05:41:57.516Z,101636.89
2023-05-02T05:42:59.163Z,101638.50
2023-05-02T05:43:58.913Z,101639.68
2023-05-02T05:45:00.514Z,101641.29
2023-05-02T05:46:00.027Z,101642.35
2023-05-02T05:47:00.707Z,101643.20
2023-05-02T05:48:01.358Z,101644.35
2023-05-02T05:48:09.997Z,101616.37
2023-05-02T05:49:10.605Z,101619.02
2023-05-02T05:50:11.165Z,101622.20
2023-05-02T05:51:11.968Z,101624.93
2023-05-02T05:52:12.601Z,101627.73
2023-05-02T05:53:12.705Z,101629.95
2023-05-02T05:54:13.269Z,101632.60
2023-05-02T05:55:14.875Z,101635.33
2023-05-02T05:56:14.429Z,101637.66
2023-05-02T05:57:14.978Z,101640.42
2023-05-02T05:58:15.831Z,101643.27
2023-05-02T05:59:16.057Z,101645.77
2023-05-02T06:00:16.531Z,101648.30
2023-05-02T06:00:26.036Z,101650.33
2023-05-02T06:01:26.640Z,101652.19
2023-05-02T06:02:27.374Z,101654.13
2023-05-02T06:03:28.236Z,101656.30
2023-05-02T06:04:28.911Z,101657.91
2023-05-02T06:05:29.335Z,101660.48
2023-05-02T06:06:29.914Z,101662.19
2023-05-02T06:07:31.025Z,101664.63
2023-05-02T06:08:30.372Z,101666.41
2023-05-02T06:09:30.422Z,101668.02
2023-05-02T06:10:30.979Z,101670.38
2023-05-02T06:11:31.632Z,101672.49
2023-05-02T06:12:32.192Z,101674.64
2023-05-02T06:13:32.920Z,101676.92
2023-05-02T06:13:54.482Z,101678.64
2023-05-02T06:14:55.090Z,101680.53
2023-05-02T06:15:55.723Z,101681.88
2023-05-02T06:16:56.201Z,101683.66
2023-05-02T06:17:56.810Z,101684.87
2023-05-02T06:18:58.564Z,101686.22
2023-05-02T06:19:58.628Z,101687.48
2023-05-02T06:20:58.801Z,101688.55
2023-05-02T06:21:59.660Z,101689.99
2023-05-02T06:23:00.247Z,101691.00
2023-05-02T06:24:00.849Z,101692.53
2023-05-02T06:25:01.423Z,101693.54
2023-05-02T06:25:10.992Z,101694.22
2023-05-02T06:26:11.640Z,101695.48
2023-05-02T06:27:12.228Z,101696.24
2023-05-02T06:28:12.903Z,101697.94
2023-05-02T06:29:13.521Z,101698.83
2023-05-02T06:30:14.162Z,101699.51
2023-05-02T06:31:14.770Z,101699.88
2023-05-02T06:32:14.994Z,101700.12
2023-05-02T06:33:15.649Z,101700.22
2023-05-02T06:34:15.902Z,101700.84
2023-05-02T06:35:16.505Z,101701.26
2023-05-02T06:36:17.256Z,101701.26
2023-05-02T06:36:30.442Z,101701.69
2023-05-02T06:37:31.094Z,101701.72
2023-05-02T06:38:31.170Z,101701.37
2023-05-02T06:39:32.119Z,101701.52
2023-05-02T06:40:32.773Z,101701.26
2023-05-02T06:41:33.510Z,101701.85
2023-05-02T06:42:34.159Z,101702.02
2023-05-02T06:43:36.093Z,101702.61
2023-05-02T06:44:35.669Z,101703.03
2023-05-02T06:45:36.194Z,101703.09
2023-05-02T06:46:36.685Z,101703.52
2023-05-02T06:47:37.359Z,101703.77
2023-05-02T06:48:37.890Z,101704.13
2023-05-02T06:48:49.465Z,101704.81
2023-05-02T06:49:49.969Z,101705.69
2023-05-02T06:50:50.717Z,101706.14
2023-05-02T06:51:51.357Z,101706.76
2023-05-02T06:52:51.990Z,101706.79
2023-05-02T06:53:52.574Z,101707.13
2023-05-02T06:54:53.313Z,101707.55
2023-05-02T06:55:53.896Z,101707.75
2023-05-02T06:56:54.064Z,101708.67
2023-05-02T06:57:54.839Z,101709.47
2023-05-02T06:58:55.466Z,101710.40
2023-05-02T06:59:07.633Z,101710.91
2023-05-02T07:00:08.228Z,101711.41
2023-05-02T07:01:08.723Z,101711.33
2023-05-02T07:02:09.503Z,101711.50
2023-05-02T07:03:10.144Z,101711.58
2023-05-02T07:04:10.919Z,101711.92
2023-05-02T07:05:11.032Z,101712.42
2023-05-02T07:06:11.764Z,101712.34
2023-05-02T07:07:12.317Z,101713.24
2023-05-02T07:08:13.020Z,101713.41
2023-05-02T07:09:13.069Z,101713.97
2023-05-02T07:10:14.075Z,101714.28
2023-05-02T07:10:27.732Z,101714.78
2023-05-02T07:11:28.412Z,101714.92
2023-05-02T07:12:28.485Z,101715.91
2023-05-02T07:13:29.341Z,101716.25
2023-05-02T07:14:30.238Z,101717.91
2023-05-02T07:15:30.874Z,101718.55
2023-05-02T07:16:31.006Z,101719.96
2023-05-02T07:17:31.722Z,101720.98
2023-05-02T07:18:32.592Z,101722.05
2023-05-02T07:19:33.547Z,101722.86
2023-05-02T07:20:34.395Z,101724.80
2023-05-02T07:21:35.116Z,101725.95
2023-05-02T07:22:36.006Z,101727.36
2023-05-02T07:22:44.642Z,101727.88
2023-05-02T07:23:45.516Z,101728.94
2023-05-02T07:24:46.088Z,101729.58
2023-05-02T07:25:46.275Z,101730.66
2023-05-02T07:26:47.030Z,101732.03
2023-05-02T07:27:47.920Z,101733.35
2023-05-02T07:28:48.561Z,101734.79
2023-05-02T07:29:49.443Z,101736.28
2023-05-02T07:30:49.562Z,101737.63
2023-05-02T07:31:50.366Z,101739.05
2023-05-02T07:32:50.553Z,101740.11
2023-05-02T07:33:52.369Z,101741.52
2023-05-02T07:34:04.871Z,101742.28
2023-05-02T07:35:04.827Z,101743.01
2023-05-02T07:36:05.461Z,101743.83
2023-05-02T07:37:06.158Z,101744.13
2023-05-02T07:38:07.134Z,101744.16
2023-05-02T07:39:08.076Z,101745.02
2023-05-02T07:40:08.762Z,101745.34
2023-05-02T07:41:09.350Z,101745.61
2023-05-02T07:42:10.176Z,101746.00
2023-05-02T07:43:11.382Z,101746.53
2023-05-02T07:44:11.441Z,101746.73
2023-05-02T07:45:11.554Z,101747.31
2023-05-02T07:46:12.417Z,101747.98
2023-05-02T07:47:13.357Z,101748.48
2023-05-02T07:47:26.043Z,101748.87
2023-05-02T07:48:27.820Z,101749.33
2023-05-02T07:49:26.646Z,101750.08
2023-05-02T07:50:27.377Z,101751.09
2023-05-02T07:51:27.963Z,101751.47
2023-05-02T07:52:28.008Z,101752.78
2023-05-02T07:53:28.673Z,101754.27
2023-05-02T07:54:29.333Z,101756.11
2023-05-02T07:55:30.011Z,101758.10
2023-05-02T07:56:30.649Z,101760.30
2023-05-02T07:57:31.315Z,101762.14
2023-05-02T07:58:32.290Z,101765.21
2023-05-02T07:59:32.491Z,101767.77
2023-05-02T07:59:42.147Z,101770.53
2023-05-02T08:00:42.979Z,101772.98
2023-05-02T08:01:43.948Z,101775.48
2023-05-02T08:02:44.251Z,101777.83
2023-05-02T08:03:45.056Z,101780.55
2023-05-02T08:04:45.415Z,101782.98
2023-05-02T08:05:46.353Z,101784.92
2023-05-02T08:06:47.038Z,101787.60
2023-05-02T08:07:47.789Z,101789.37
2023-05-02T08:08:47.884Z,101791.86
2023-05-02T08:09:48.610Z,101794.18
2023-05-02T08:10:49.369Z,101795.82
2023-05-02T08:11:09.925Z,101798.02
2023-05-02T08:12:06.232Z,101799.58
2023-05-02T08:13:07.039Z,101800.76
2023-05-02T08:14:07.011Z,101801.27
2023-05-02T08:15:07.709Z,101801.52
2023-05-02T08:16:08.364Z,101802.62
2023-05-02T08:17:08.341Z,101802.95
2023-05-02T08:18:09.346Z,101803.63
2023-05-02T08:19:09.592Z,101803.63
2023-05-02T08:20:10.525Z,101804.11
2023-05-02T08:21:42.987Z,101804.33
2023-05-02T08:23:38.308Z,101804.76
2023-05-02T08:24:38.017Z,101805.34
2023-05-02T08:25:55.507Z,101805.89
2023-05-02T08:26:55.703Z,101806.85
2023-05-02T08:27:42.455Z,101807.76
2023-05-02T08:28:57.846Z,101808.47
2023-05-02T08:29:48.606Z,101809.17
2023-05-02T08:30:44.174Z,101809.56
2023-05-02T08:31:42.714Z,101809.63
2023-05-02T08:32:43.438Z,101810.09
2023-05-02T08:33:46.334Z,101811.64
2023-05-02T08:34:44.718Z,101812.42
2023-05-02T08:35:45.625Z,101813.69
2023-05-02T08:37:09.113Z,101818.34
2023-05-02T08:38:26.479Z,101819.98
2023-05-02T08:39:09.850Z,101822.09
2023-05-02T08:40:10.605Z,101824.98
2023-05-02T08:41:10.821Z,101827.00
2023-05-02T08:47:23.658Z,101834.17
2023-05-02T08:48:24.290Z,101838.28
2023-05-02T08:49:25.030Z,101842.52
2023-05-02T08:50:25.751Z,101846.39
2023-05-02T08:51:26.400Z,101849.92
2023-05-02T08:52:27.192Z,101853.38
2023-05-02T08:54:59.127Z,101860.26
2023-05-02T08:55:58.740Z,101865.24
2023-05-02T08:57:06.774Z,101870.01
2023-05-02T08:58:07.752Z,101874.59
2023-05-02T08:59:15.780Z,101880.52
2023-05-02T09:00:08.873Z,101885.33
2023-05-02T09:01:12.389Z,101890.59
2023-05-02T09:02:12.926Z,101896.42
2023-05-02T09:03:11.440Z,101901.83
2023-05-02T09:04:19.773Z,101907.53
2023-05-02T09:05:12.924Z,101913.05
2023-05-02T09:09:30.951Z,101918.95
2023-05-02T09:12:53.334Z,101925.81
2023-05-02T09:13:53.550Z,101932.52
2023-05-02T09:14:54.412Z,101939.66
2023-05-02T09:15:57.459Z,101946.36
2023-05-02T09:20:14.828Z,101952.63
2023-05-02T09:21:17.335Z,101959.92
2023-05-02T09:22:17.612Z,101966.44
2023-05-02T09:23:17.198Z,101974.07
2023-05-02T09:23:30.915Z,101981.02
2023-05-02T09:24:31.464Z,101988.33
2023-05-02T09:25:32.347Z,101995.55
2023-05-02T09:26:33.089Z,102002.82
2023-05-02T09:27:33.730Z,102009.39
2023-05-02T09:28:34.322Z,102016.09
2023-05-02T09:29:35.109Z,102022.28
2023-05-02T09:30:36.855Z,102029.31
2023-05-02T09:32:37.371Z,102041.72
2023-05-02T09:33:38.146Z,102047.80
2023-05-02T09:34:38.645Z,102054.20
2023-05-02T09:35:39.415Z,102060.20
2023-05-02T09:35:48.576Z,102066.45
2023-05-02T09:36:49.322Z,102071.55
2023-05-02T09:37:50.224Z,102076.36
2023-05-02T09:38:50.289Z,102080.36
2023-05-02T09:39:51.069Z,102083.45
2023-05-02T09:40:51.863Z,102086.51
2023-05-02T09:41:52.616Z,102089.14
2023-05-02T09:42:53.245Z,102091.73
2023-05-02T09:43:53.946Z,102094.86
2023-05-02T09:44:54.593Z,102097.74
2023-05-02T09:45:55.507Z,102099.89
2023-05-02T09:46:04.253Z,102101.55
2023-05-02T09:47:04.979Z,102103.22
2023-05-02T09:48:05.693Z,102104.99
2023-05-02T09:49:06.240Z,102105.70
2023-05-02T09:50:07.056Z,102107.02
2023-05-02T09:51:07.461Z,102107.25
2023-05-02T09:52:08.137Z,102108.09
2023-05-02T09:53:08.826Z,102108.84
2023-05-02T09:54:09.785Z,102109.83
2023-05-02T09:55:10.656Z,102111.00
2023-05-02T09:56:11.650Z,102112.14
2023-05-02T09:57:12.266Z,102113.20
2023-05-02T09:57:21.897Z,102114.64
2023-05-02T09:58:22.489Z,102115.92
2023-05-02T09:59:23.169Z,102117.48
2023-05-02T10:00:23.822Z,102119.10
2023-05-02T10:01:24.433Z,102121.06
2023-05-02T10:02:25.083Z,102122.53
2023-05-02T10:03:25.724Z,102124.16
2023-05-02T10:04:26.564Z,102125.72
2023-05-02T10:05:27.083Z,102126.91
2023-05-02T10:06:27.960Z,102128.09
2023-05-02T10:07:28.571Z,102128.14
2023-05-02T10:08:29.188Z,102128.62
2023-05-02T10:09:29.837Z,102129.09
2023-05-02T10:09:38.377Z,102129.66
2023-05-02T10:10:38.736Z,102129.75
2023-05-02T10:11:39.387Z,102130.29
2023-05-02T10:12:39.861Z,102130.53
2023-05-02T10:13:40.584Z,102131.11
2023-05-02T10:14:41.363Z,102131.27
2023-05-02T10:15:41.382Z,102132.36
2023-05-02T10:16:41.811Z,102134.33
2023-05-02T10:17:42.642Z,102136.60
2023-05-02T10:18:42.514Z,102139.35
2023-05-02T10:19:42.601Z,102141.94
2023-05-02T10:20:43.324Z,102144.67
2023-05-02T10:20:55.752Z,102148.04
2023-05-02T10:21:53.946Z,102150.61
2023-05-02T10:22:54.775Z,102153.39
2023-05-02T10:23:55.520Z,102155.36
2023-05-02T10:24:56.234Z,102157.30
2023-05-02T10:25:58.052Z,102159.31
2023-05-02T10:26:57.399Z,102161.29
2023-05-02T10:27:58.103Z,102163.47
2023-05-02T10:28:58.208Z,102166.22
2023-05-02T10:29:58.837Z,102169.04
2023-05-02T10:30:59.799Z,102171.52
2023-05-02T10:32:00.541Z,102175.61
2023-05-02T10:32:14.214Z,102178.38
2023-05-02T10:33:14.551Z,102181.27
2023-05-02T10:34:14.785Z,102183.67
2023-05-02T10:35:15.365Z,102186.47
2023-05-02T10:36:16.191Z,102188.05
2023-05-02T10:37:16.783Z,102189.84
2023-05-02T10:38:17.552Z,102191.07
2023-05-02T10:39:18.186Z,102191.70
2023-05-02T10:40:18.939Z,102193.02
2023-05-02T10:41:19.175Z,102193.83
2023-05-02T10:42:19.801Z,102194.67
2023-05-02T10:43:20.436Z,102195.86
2023-05-02T10:44:20.981Z,102196.58
2023-05-02T10:44:31.168Z,102197.89
2023-05-02T10:45:31.987Z,102199.00
2023-05-02T10:46:32.699Z,102200.36
2023-05-02T10:47:33.641Z,102201.61
2023-05-02T10:48:34.072Z,102203.78
2023-05-02T10:49:34.780Z,102205.38
2023-05-02T10:50:35.248Z,102207.13
2023-05-02T10:51:35.010Z,102209.73
2023-05-02T10:52:35.211Z,102211.72
2023-05-02T10:53:36.237Z,102213.05
2023-05-02T10:54:36.981Z,102215.66
2023-05-02T10:55:37.722Z,102217.11
2023-05-02T10:56:38.455Z,102219.17
2023-05-02T10:56:47.148Z,102193.13
2023-05-02T10:57:47.733Z,102197.09
2023-05-02T10:58:48.177Z,102201.31
2023-05-02T10:59:48.747Z,102205.03
2023-05-02T11:00:50.093Z,102208.80
2023-05-02T11:01:49.881Z,102211.66
2023-05-02T11:02:50.088Z,102215.17
2023-05-02T11:03:50.021Z,102218.80
2023-05-02T11:04:50.094Z,102222.85
2023-05-02T11:05:50.708Z,102226.09